Time;durP1;ratioP1;P1;durP2;ratioP2;P2;SDS_P1;SDS_P2;PMS_P1;PMS_P2;Temp;Humidity;BMP_temperature;BMP_pressure;BME280_temperature;BME280_humidity;BME280_pressure;Samples;Min_cycle;Max_cycle;Signal;HPM_P1;HPM_P2
2022/12/25 00:00:25;;;;;;;;;;;;;;;6.76;100.00;100288.75;5011293;28;19941;-83
2022/12/25 00:02:50;;;;;;;;;;;;;;;6.74;100.00;100281.91;5017352;28;20365;-84
2022/12/25 00:05:16;;;;;;;;;;;;;;;6.72;100.00;100284.63;5010244;28;20016;-85
2022/12/25 00:07:41;;;;;;;;;;;;;;;6.74;100.00;100281.91;5008993;28;19917;-85
2022/12/25 00:10:07;;;;;;;;;;;;;;;6.74;100.00;100285.38;4993761;28;19933;-85
2022/12/25 00:12:32;;;;;;;;;;;;;;;6.74;100.00;100282.75;5012346;28;19928;-84
2022/12/25 00:14:58;;;;;;;;;;;;;;;6.73;100.00;100288.09;5013138;28;19956;-83
2022/12/25 00:17:23;;;;;;;;;;;;;;;6.74;100.00;100293.25;5012428;28;19980;-84
2022/12/25 00:19:49;;;;;;;;;;;;;;;6.77;100.00;100298.31;5014677;28;19918;-87
2022/12/25 00:22:14;;;;;;;;;;;;;;;6.75;100.00;100292.31;5013451;28;20409;-83
2022/12/25 00:24:40;;;;;;;;;;;;;;;6.75;100.00;100288.84;5009810;28;19924;-84
2022/12/25 00:27:05;;;;;;;;;;;;;;;6.77;100.00;100292.22;5012714;28;19924;-84
2022/12/25 00:29:31;;;;;;;;;;;;;;;6.76;100.00;100280.88;4996121;28;19918;-83
2022/12/25 00:31:56;;;;;;;;;;;;;;;6.74;100.00;100290.63;5014271;28;19918;-84
2022/12/25 00:34:22;;;;;;;;;;;;;;;6.68;100.00;100283.16;5012241;28;19917;-80
2022/12/25 00:36:50;;;;;;;;;;;;;;;6.67;100.00;100285.88;5006653;28;19922;-80
2022/12/25 00:39:16;;;;;;;;;;;;;;;6.67;100.00;100281.47;4989793;28;19917;-81
2022/12/25 00:44:25;;;;;;;;;;;;;;;6.72;100.00;100284.63;5009822;28;19940;-81
2022/12/25 00:46:51;;;;;;;;;;;;;;;6.74;100.00;100292.41;5003897;28;20008;-80
2022/12/25 00:49:16;;;;;;;;;;;;;;;6.77;100.00;100292.22;5008863;28;20095;-83
2022/12/25 00:51:42;;;;;;;;;;;;;;;6.72;100.00;100296.88;5005245;28;19918;-81
2022/12/25 00:54:08;;;;;;;;;;;;;;;6.66;100.00;100299.91;5005375;28;19922;-82
2022/12/25 00:56:33;;;;;;;;;;;;;;;6.62;100.00;100301.91;5009337;28;19917;-82
2022/12/25 00:59:00;;;;;;;;;;;;;;;6.62;100.00;100299.28;4993648;28;20348;-83
2022/12/25 01:01:25;;;;;;;;;;;;;;;6.63;100.00;100300.13;5008397;28;19918;-82
2022/12/25 01:03:50;;;;;;;;;;;;;;;6.64;100.00;100302.66;5009765;28;19979;-82
2022/12/25 01:06:16;;;;;;;;;;;;;;;6.66;100.00;100310.41;5008948;28;19914;-81
2022/12/25 01:11:26;;;;;;;;;;;;;;;6.68;100.00;100312.00;5007653;28;19921;-81
2022/12/25 01:13:52;;;;;;;;;;;;;;;6.68;100.00;100309.38;5006253;28;19914;-81
2022/12/25 01:16:17;;;;;;;;;;;;;;;6.70;100.00;100323.25;5008706;28;20380;-80
2022/12/25 01:18:43;;;;;;;;;;;;;;;6.71;100.00;100314.44;5004951;28;19913;-80
2022/12/25 01:21:09;;;;;;;;;;;;;;;6.73;100.00;100312.53;5008187;28;19925;-80
2022/12/25 01:23:35;;;;;;;;;;;;;;;6.74;100.00;100316.00;5005955;28;19944;-82
2022/12/25 01:26:08;;;;;;;;;;;;;;;6.75;100.00;100317.69;5006195;28;19918;-81
2022/12/25 01:28:34;;;;;;;;;;;;;;;6.73;100.00;100323.03;5005883;28;20296;-82
2022/12/25 01:30:59;;;;;;;;;;;;;;;6.74;100.00;100316.84;5006158;28;20035;-81
2022/12/25 01:33:24;;;;;;;;;;;;;;;6.77;100.00;100332.41;5014036;28;19957;-81
2022/12/25 01:35:50;;;;;;;;;;;;;;;6.78;100.00;100331.44;5005090;28;19925;-81
2022/12/25 01:38:16;;;;;;;;;;;;;;;6.80;100.00;100329.56;5008455;28;19923;-81
2022/12/25 01:40:41;;;;;;;;;;;;;;;6.80;100.00;100339.22;5004274;28;19953;-81
2022/12/25 01:43:25;;;;;;;;;;;;;;;6.77;100.00;100340.28;5006331;28;20267;-81
2022/12/25 01:45:54;;;;;;;;;;;;;;;6.77;100.00;100340.28;5008982;28;19967;-82
2022/12/25 01:48:25;;;;;;;;;;;;;;;6.75;100.00;100336.91;5004735;28;19914;-80
2022/12/25 01:50:56;;;;;;;;;;;;;;;6.76;100.00;100353.47;5007003;28;19917;-80
2022/12/25 01:53:22;;;;;;;;;;;;;;;6.76;100.00;100343.81;5005827;28;19921;-82
2022/12/25 01:55:49;;;;;;;;;;;;;;;6.75;100.00;100344.75;5006937;28;20274;-84
2022/12/25 01:58:16;;;;;;;;;;;;;;;6.75;100.00;100349.16;5001916;28;19952;-84
2022/12/25 02:00:42;;;;;;;;;;;;;;;6.76;100.00;100343.81;5004326;28;19928;-82
2022/12/25 02:03:07;;;;;;;;;;;;;;;6.72;100.00;100347.56;5008198;28;19921;-82
2022/12/25 02:05:34;;;;;;;;;;;;;;;6.73;100.00;100348.41;5005239;28;20678;-81
2022/12/25 02:08:01;;;;;;;;;;;;;;;6.74;100.00;100350.94;5004408;28;20309;-81
2022/12/25 02:10:26;;;;;;;;;;;;;;;6.75;100.00;100346.53;4987146;28;19917;-80
2022/12/25 02:12:52;;;;;;;;;;;;;;;6.74;100.00;100343.06;5005496;28;19924;-80
2022/12/25 02:15:19;;;;;;;;;;;;;;;6.74;100.00;100340.47;5003193;28;19929;-79
2022/12/25 02:17:53;;;;;;;;;;;;;;;6.74;100.00;100337.00;5006208;28;19917;-80
2022/12/25 02:20:18;;;;;;;;;;;;;;;6.76;100.00;100338.59;5008080;28;19917;-80
2022/12/25 02:22:47;;;;;;;;;;;;;;;6.77;100.00;100339.44;5006366;28;20425;-81
2022/12/25 02:25:12;;;;;;;;;;;;;;;6.73;100.00;100344.00;5009902;28;19955;-80
2022/12/25 02:27:56;;;;;;;;;;;;;;;6.72;100.00;100344.94;5007047;28;19917;-81
2022/12/25 02:30:22;;;;;;;;;;;;;;;6.72;100.00;100344.94;5010873;28;19917;-81
2022/12/25 02:34:01;;;;;;;;;;;;;;;6.75;100.00;100342.16;5013564;28;19921;-81
2022/12/25 02:35:39;;;;;;;;;;;;;;;6.68;100.00;100347.88;5007692;28;19917;-82
2022/12/25 02:38:13;;;;;;;;;;;;;;;6.67;100.00;100347.03;5007498;28;19961;-81
2022/12/25 02:40:42;;;;;;;;;;;;;;;6.64;100.00;100338.53;5005434;28;19924;-83
2022/12/25 03:08:35;;;;;;;;;;;;;;;6.70;100.00;100344.22;5010763;28;20020;-82
2022/12/25 03:13:48;;;;;;;;;;;;;;;6.73;100.00;100338.75;5006957;28;19917;-82
2022/12/25 03:18:58;;;;;;;;;;;;;;;6.72;100.00;100331.84;5003257;28;20118;-82
2022/12/25 03:26:55;;;;;;;;;;;;;;;6.73;100.00;100351.88;5004766;28;19980;-83
2022/12/25 03:32:24;;;;;;;;;;;;;;;6.72;100.00;100337.09;5007623;28;20328;-81
2022/12/25 03:35:24;;;;;;;;;;;;;;;6.72;100.00;100337.09;5006002;28;19964;-82
2022/12/25 04:38:28;;;;;;;;;;;;;;;6.81;100.00;100347.00;5014806;28;19917;-80
2022/12/25 04:40:54;;;;;;;;;;;;;;;6.83;100.00;100339.84;5008727;28;19924;-79
2022/12/25 04:43:19;;;;;;;;;;;;;;;6.83;100.00;100349.53;5011188;28;19952;-78
2022/12/25 04:45:50;;;;;;;;;;;;;;;6.84;100.00;100349.41;5005405;28;20432;-79
2022/12/25 04:48:16;;;;;;;;;;;;;;;6.82;100.00;100355.72;5008692;28;19917;-79
2022/12/25 04:50:41;;;;;;;;;;;;;;;6.81;100.00;100362.72;5005239;28;20246;-80
2022/12/25 04:53:07;;;;;;;;;;;;;;;6.84;100.00;100356.44;5006879;28;19921;-80
2022/12/25 04:55:32;;;;;;;;;;;;;;;6.77;100.00;100363.88;5006881;28;19987;-79
2022/12/25 04:57:57;;;;;;;;;;;;;;;6.70;100.00;100370.44;5008029;28;20063;-82
2022/12/25 05:00:23;;;;;;;;;;;;;;;6.57;100.00;100364.31;5010543;28;19917;-80
2022/12/25 05:02:48;;;;;;;;;;;;;;;6.56;100.00;100368.69;5017367;28;20262;-80
2022/12/25 05:05:14;;;;;;;;;;;;;;;6.55;100.00;100366.16;5007074;28;20380;-81
2022/12/25 05:07:39;;;;;;;;;;;;;;;6.57;100.00;100364.31;5010547;28;19917;-81
2022/12/25 05:10:05;;;;;;;;;;;;;;;6.61;100.00;100367.56;5006192;28;20356;-81
2022/12/25 05:12:30;;;;;;;;;;;;;;;6.64;100.00;100370.00;5006687;28;19940;-81
2022/12/25 05:14:55;;;;;;;;;;;;;;;6.67;100.00;100368.00;5006808;28;19939;-82
2022/12/25 05:17:21;;;;;;;;;;;;;;;6.70;100.00;100375.69;5010589;28;19988;-84
2022/12/25 05:19:46;;;;;;;;;;;;;;;6.72;100.00;100368.56;5013963;28;19940;-85
2022/12/25 05:22:12;;;;;;;;;;;;;;;6.73;100.00;100375.50;5007626;28;19933;-83
2022/12/25 05:24:37;;;;;;;;;;;;;;;6.76;100.00;100377.09;5008181;28;19929;-83
2022/12/25 05:27:03;;;;;;;;;;;;;;;6.80;100.00;100371.53;5009458;28;20314;-82
2022/12/25 05:29:28;;;;;;;;;;;;;;;6.80;100.00;100374.16;5005567;28;19917;-80
2022/12/25 05:31:53;;;;;;;;;;;;;;;6.82;100.00;100369.66;5009293;28;19917;-83
2022/12/25 05:34:19;;;;;;;;;;;;;;;6.84;100.00;100373.00;5010075;28;19941;-81
2022/12/25 05:36:44;;;;;;;;;;;;;;;6.85;100.00;100373.84;5008209;28;19928;-83
2022/12/25 05:39:10;;;;;;;;;;;;;;;6.87;100.00;100377.22;5018490;28;19917;-84
2022/12/25 05:41:35;;;;;;;;;;;;;;;6.85;100.00;100379.09;5010721;28;19976;-84
2022/12/25 05:44:01;;;;;;;;;;;;;;;6.81;100.00;100378.47;5009666;28;19921;-83
2022/12/25 05:46:26;;;;;;;;;;;;;;;6.75;100.00;100373.63;5007739;28;19925;-82
2022/12/25 05:48:52;;;;;;;;;;;;;;;6.77;100.00;100382.25;5009126;28;19917;-82
2022/12/25 05:51:17;;;;;;;;;;;;;;;6.77;100.00;100384.88;5008043;28;19928;-82
2022/12/25 05:53:43;;;;;;;;;;;;;;;6.77;100.00;100386.66;5006957;28;19952;-80
2022/12/25 05:56:09;;;;;;;;;;;;;;;6.76;100.00;100383.19;5005972;28;20000;-81
2022/12/25 05:58:35;;;;;;;;;;;;;;;6.79;100.00;100380.34;5004429;28;19917;-81
2022/12/25 06:01:01;;;;;;;;;;;;;;;6.80;100.00;100382.03;5004153;28;19933;-82
2022/12/25 06:03:26;;;;;;;;;;;;;;;6.81;100.00;100383.72;4995742;28;19917;-80
2022/12/25 06:05:51;;;;;;;;;;;;;;;6.83;100.00;100381.00;5012762;28;19918;-81
2022/12/25 06:08:17;;;;;;;;;;;;;;;6.85;100.00;100384.34;5011333;28;19940;-81
2022/12/25 06:10:42;;;;;;;;;;;;;;;6.86;100.00;100381.63;5007076;28;19918;-81
2022/12/25 06:13:08;;;;;;;;;;;;;;;6.86;100.00;100381.63;5006514;28;19972;-80
2022/12/25 06:15:33;;;;;;;;;;;;;;;6.89;100.00;100383.22;5004145;28;19917;-80
2022/12/25 06:18:00;;;;;;;;;;;;;;;6.90;100.00;100382.25;5003651;28;19925;-81
2022/12/25 06:20:25;;;;;;;;;;;;;;;6.90;100.00;100377.88;5004227;28;20380;-79
2022/12/25 06:22:51;;;;;;;;;;;;;;;6.89;100.00;100386.66;5004871;28;19917;-79
2022/12/25 06:25:16;;;;;;;;;;;;;;;6.90;100.00;100383.09;5005047;28;20028;-80
2022/12/25 06:27:42;;;;;;;;;;;;;;;6.91;100.00;100391.81;5001718;28;19925;-80
2022/12/25 06:30:07;;;;;;;;;;;;;;;6.93;100.00;100398.66;5004317;28;19932;-79
2022/12/25 06:32:33;;;;;;;;;;;;;;;6.92;100.00;100402.22;5010680;28;19917;-79
2022/12/25 06:34:58;;;;;;;;;;;;;;;6.93;100.00;100393.41;5003082;28;19925;-79
2022/12/25 06:37:23;;;;;;;;;;;;;;;6.93;100.00;100398.66;5002685;28;20318;-79
2022/12/25 06:39:49;;;;;;;;;;;;;;;6.92;100.00;100399.59;5004298;28;19924;-80
2022/12/25 06:42:14;;;;;;;;;;;;;;;6.93;100.00;100398.66;5001162;28;19926;-79
2022/12/25 06:44:40;;;;;;;;;;;;;;;6.88;100.00;100400.75;5004385;28;19925;-79
2022/12/25 06:47:05;;;;;;;;;;;;;;;6.79;100.00;100400.47;5019628;22;19925;-79
2022/12/25 06:49:30;;;;;;;;;;;;;;;6.76;100.00;100404.16;5003327;28;19932;-79
2022/12/25 06:51:56;;;;;;;;;;;;;;;6.77;100.00;100413.72;5003302;28;19951;-79
2022/12/25 06:54:21;;;;;;;;;;;;;;;6.74;100.00;100408.66;5001717;28;19917;-78
2022/12/25 06:56:47;;;;;;;;;;;;;;;6.72;100.00;100409.69;5004306;28;20276;-79
2022/12/25 06:59:12;;;;;;;;;;;;;;;6.74;100.00;100402.56;5000189;28;20275;-79
2022/12/25 07:01:41;;;;;;;;;;;;;;;6.77;100.00;100403.22;5003674;28;19925;-79
2022/12/25 07:04:10;;;;;;;;;;;;;;;6.81;100.00;100404.72;5001975;28;19925;-78
2022/12/25 07:06:35;;;;;;;;;;;;;;;6.82;100.00;100401.16;5003312;28;20020;-78
2022/12/25 07:09:00;;;;;;;;;;;;;;;6.83;100.00;100408.06;5002356;28;20516;-80
2022/12/25 07:11:26;;;;;;;;;;;;;;;6.84;100.00;100409.75;5002026;28;19918;-78
2022/12/25 07:13:51;;;;;;;;;;;;;;;6.85;100.00;100411.44;5003594;28;20010;-78
2022/12/25 07:16:17;;;;;;;;;;;;;;;6.86;100.00;100413.13;5000528;28;19925;-78
2022/12/25 07:18:42;;;;;;;;;;;;;;;6.88;100.00;100411.25;5002363;28;20270;-78
2022/12/25 07:21:14;;;;;;;;;;;;;;;6.88;100.00;100411.25;5001414;28;19925;-78
2022/12/25 07:23:41;;;;;;;;;;;;;;;6.90;100.00;100409.34;5003467;28;19924;-78
2022/12/25 07:26:06;;;;;;;;;;;;;;;6.91;100.00;100416.28;5001475;28;19917;-78
2022/12/25 07:28:32;;;;;;;;;;;;;;;6.91;100.00;100413.66;5002166;28;20347;-80
2022/12/25 07:31:08;;;;;;;;;;;;;;;6.91;100.00;100421.53;5002297;28;19936;-80
2022/12/25 07:33:33;;;;;;;;;;;;;;;6.94;100.00;100428.38;5002679;28;19986;-80
2022/12/25 07:35:59;;;;;;;;;;;;;;;6.95;100.00;100432.69;5001980;28;19952;-78
2022/12/25 07:38:25;;;;;;;;;;;;;;;6.98;100.00;100445.59;5001379;28;19917;-79
2022/12/25 07:40:50;;;;;;;;;;;;;;;7.01;100.00;100447.19;5003128;28;19924;-79
2022/12/25 07:43:16;;;;;;;;;;;;;;;6.99;100.00;100456.00;5000344;28;19918;-79
2022/12/25 07:45:41;;;;;;;;;;;;;;;7.02;100.00;100454.94;5003137;28;19960;-79
2022/12/25 07:48:06;;;;;;;;;;;;;;;7.03;100.00;100456.63;5000739;28;20012;-78
2022/12/25 07:50:32;;;;;;;;;;;;;;;7.08;100.00;100469.47;5002230;28;20020;-79
2022/12/25 07:52:57;;;;;;;;;;;;;;;7.01;100.00;100471.63;5002082;28;19983;-79
2022/12/25 07:55:22;;;;;;;;;;;;;;;7.03;100.00;100468.91;5000253;28;19924;-78
2022/12/25 07:57:48;;;;;;;;;;;;;;;7.02;100.00;100464.59;5001889;28;20008;-78
2022/12/25 08:00:13;;;;;;;;;;;;;;;7.03;100.00;100471.53;4997562;28;19926;-77
2022/12/25 08:02:38;;;;;;;;;;;;;;;7.03;100.00;100471.53;5001584;28;19931;-77
2022/12/25 08:05:04;;;;;;;;;;;;;;;7.12;100.00;100469.19;5000932;28;19917;-79
2022/12/25 08:07:29;;;;;;;;;;;;;;;7.04;100.00;100468.81;5000072;28;19913;-79
2022/12/25 08:09:55;;;;;;;;;;;;;;;7.04;100.00;100468.81;5002148;28;19924;-79
2022/12/25 08:12:20;;;;;;;;;;;;;;;7.17;100.00;100480.22;5002904;28;19921;-80
2022/12/25 08:14:46;;;;;;;;;;;;;;;-144.47;100.00;61586.06;5009310;28;20397;-82
2022/12/25 08:17:12;;;;;;;;;;;;;;;7.12;100.00;100502.47;5021774;28;19924;-81
2022/12/25 08:19:38;;;;;;;;;;;;;;;7.13;100.00;100493.66;5003328;28;19913;-79
2022/12/25 08:22:03;;;;;;;;;;;;;;;7.14;100.00;100497.94;4999212;28;19944;-79
2022/12/25 08:24:28;;;;;;;;;;;;;;;7.16;100.00;100503.94;4993187;28;20245;-80
2022/12/25 08:26:53;;;;;;;;;;;;;;;7.17;100.00;100509.09;4996116;28;20004;-81
2022/12/25 08:29:19;;;;;;;;;;;;;;;-144.47;100.00;77447.00;5003451;28;20011;-78
2022/12/25 08:31:44;;;;;;;;;;;;;;;7.22;100.00;100508.81;4999481;28;19945;-77
2022/12/25 08:34:10;;;;;;;;;;;;;;;7.22;100.00;100508.81;5003511;28;19917;-80
2022/12/25 08:36:35;;;;;;;;;;;;;;;-144.47;100.00;61586.06;5005216;28;19928;-81
2022/12/25 08:39:01;;;;;;;;;;;;;;;7.30;100.00;100511.78;5006912;28;19921;-79
2022/12/25 08:41:26;;;;;;;;;;;;;;;7.12;100.00;100516.44;5016230;28;19924;-79
2022/12/25 08:43:52;;;;;;;;;;;;;;;7.08;100.00;100521.94;5018917;28;20397;-78
2022/12/25 08:46:18;;;;;;;;;;;;;;;7.15;100.00;100518.00;4999345;28;19968;-80
2022/12/25 08:48:53;;;;;;;;;;;;;;;7.15;100.00;100518.00;4995570;28;19917;-81
2022/12/25 08:51:19;;;;;;;;;;;;;;;7.13;100.00;100528.59;5003222;28;19913;-82
2022/12/25 08:53:46;;;;;;;;;;;;;;;-144.47;100.00;61586.06;5004890;28;19918;-79
2022/12/25 08:56:12;;;;;;;;;;;;;;;-144.47;100.00;61586.06;4998030;28;19941;-78
2022/12/25 08:58:37;;;;;;;;;;;;;;;-144.47;100.00;61586.06;5003073;28;19968;-81
2022/12/25 09:01:03;;;;;;;;;;;;;;;7.22;100.00;100540.31;5000286;28;20679;-79
2022/12/25 09:03:30;;;;;;;;;;;;;;;7.05;100.00;100543.16;5001184;28;20326;-81
2022/12/25 09:06:00;;;;;;;;;;;;;;;7.09;100.00;100544.63;5001616;28;20393;-76
2022/12/25 09:08:25;;;;;;;;;;;;;;;7.08;100.00;100553.44;5003616;28;19964;-79
2022/12/25 09:10:51;;;;;;;;;;;;;;;7.03;100.00;100558.97;4996901;28;19980;-78
2022/12/25 09:13:16;;;;;;;;;;;;;;;7.02;100.00;100554.66;4996301;28;19964;-78
2022/12/25 09:15:42;;;;;;;;;;;;;;;-144.47;100.00;61586.06;4998364;28;19917;-79
2022/12/25 09:18:07;;;;;;;;;;;;;;;-144.47;100.00;61586.06;5001052;28;19959;-80
2022/12/25 09:20:33;;;;;;;;;;;;;;;7.04;100.00;100563.31;5006510;28;19924;-80
2022/12/25 09:22:58;;;;;;;;;;;;;;;7.04;100.00;61586.06;5006771;28;20035;-84
2022/12/25 09:25:24;;;;;;;;;;;;;;;7.04;100.00;100563.31;5006859;28;20031;-80
2022/12/25 09:27:50;;;;;;;;;;;;;;;7.04;100.00;100563.31;5002676;28;20393;-81
2022/12/25 09:30:15;;;;;;;;;;;;;;;-144.47;100.00;61586.06;5010601;28;19917;-80
2022/12/25 09:32:46;;;;;;;;;;;;;;;7.04;0.00;79887.66;5001300;28;19940;-79
2022/12/25 09:35:12;;;;;;;;;;;;;;;7.44;100.00;100571.28;5003719;28;20404;-76
2022/12/25 09:37:38;;;;;;;;;;;;;;;7.32;100.00;100567.66;5008349;28;19948;-79
2022/12/25 09:40:03;;;;;;;;;;;;;;;-144.47;100.00;61586.06;5000823;28;19928;-79
2022/12/25 09:42:31;;;;;;;;;;;;;;;-144.47;100.00;61586.06;5000665;28;19922;-80
2022/12/25 09:45:01;;;;;;;;;;;;;;;-144.47;100.00;61586.06;5002001;28;19918;-79
2022/12/25 09:47:29;;;;;;;;;;;;;;;-144.47;100.00;61626.34;5003686;28;19917;-79
2022/12/25 09:50:00;;;;;;;;;;;;;;;-144.47;100.00;61586.06;5018553;28;20293;-79
2022/12/25 09:52:31;;;;;;;;;;;;;;;-144.47;100.00;61586.06;5006304;28;19964;-78
2022/12/25 09:55:20;;;;;;;;;;;;;;;7.54;100.00;100562.69;5001530;28;19924;-80
2022/12/25 09:57:50;;;;;;;;;;;;;;;7.59;100.00;100576.41;5006753;28;19917;-79
2022/12/25 10:00:17;;;;;;;;;;;;;;;-144.47;100.00;61586.06;5003291;28;19972;-79
2022/12/25 10:02:42;;;;;;;;;;;;;;;-144.47;100.00;61586.06;5005012;28;19924;-79
2022/12/25 10:05:26;;;;;;;;;;;;;;;7.55;100.00;100564.38;5006708;28;21330;-79
2022/12/25 10:08:10;;;;;;;;;;;;;;;7.52;100.00;100567.22;5002567;28;20324;-80
2022/12/25 10:10:49;;;;;;;;;;;;;;;7.52;100.00;100551.47;5006471;28;19972;-83
2022/12/25 10:13:30;;;;;;;;;;;;;;;7.53;100.00;100555.78;4993732;28;19968;-81
2022/12/25 10:16:03;;;;;;;;;;;;;;;7.57;100.00;100559.88;4998625;28;20252;-78
2022/12/25 10:18:46;;;;;;;;;;;;;;;7.60;100.00;100556.22;4997859;28;20015;-79
2022/12/25 10:21:13;;;;;;;;;;;;;;;7.72;100.00;100551.00;4996961;28;20388;-76
2022/12/25 10:23:39;;;;;;;;;;;;;;;7.61;100.00;100553.47;5003451;28;19925;-77
2022/12/25 10:26:13;;;;;;;;;;;;;;;-144.47;100.00;61586.06;5003748;28;19925;-79
2022/12/25 10:28:40;;;;;;;;;;;;;;;-144.47;100.00;61586.06;5001762;28;19918;-79
2022/12/25 10:31:24;;;;;;;;;;;;;;;-144.47;100.00;61586.06;4996680;28;20147;-78
2022/12/25 10:33:51;;;;;;;;;;;;;;;-144.47;100.00;61586.06;4999431;28;19925;-79
2022/12/25 10:36:17;;;;;;;;;;;;;;;-144.47;100.00;61586.06;5019890;28;19917;-77
2022/12/25 10:38:45;;;;;;;;;;;;;;;-144.47;100.00;61586.06;4997576;28;19924;-78
2022/12/25 10:41:24;;;;;;;;;;;;;;;-144.47;100.00;61586.06;5004010;28;20376;-79
2022/12/25 10:43:54;;;;;;;;;;;;;;;-144.47;100.00;61586.06;5010584;28;20358;-80
2022/12/25 10:46:20;;;;;;;;;;;;;;;-144.47;100.00;61586.06;5001557;28;19921;-80
2022/12/25 10:48:48;;;;;;;;;;;;;;;-144.47;100.00;61586.06;4999380;28;19917;-79
2022/12/25 10:51:24;;;;;;;;;;;;;;;-144.47;100.00;61586.06;4995787;28;19924;-76
2022/12/25 10:53:50;;;;;;;;;;;;;;;-144.47;100.00;61586.06;4997765;28;19979;-80
2022/12/25 10:56:16;;;;;;;;;;;;;;;-144.47;100.00;61586.06;5004544;28;19921;-79
2022/12/25 10:58:42;;;;;;;;;;;;;;;-144.47;100.00;61586.06;4995095;28;19924;-80
2022/12/25 11:01:08;;;;;;;;;;;;;;;-144.47;100.00;61586.06;5003605;28;19917;-77
2022/12/25 11:03:36;;;;;;;;;;;;;;;-144.47;100.00;61586.06;5001142;28;19917;-79
2022/12/25 11:06:01;;;;;;;;;;;;;;;-144.47;100.00;61586.06;5000283;28;19968;-79
2022/12/25 11:08:28;;;;;;;;;;;;;;;-144.47;100.00;61586.06;4995303;28;19918;-79
2022/12/25 11:10:58;;;;;;;;;;;;;;;-144.47;100.00;61586.06;5002040;28;19917;-78
2022/12/25 11:13:29;;;;;;;;;;;;;;;-144.47;100.00;61586.06;4999462;28;20286;-78
2022/12/25 11:16:12;;;;;;;;;;;;;;;-144.47;100.00;61586.06;4998321;28;19976;-78
2022/12/25 11:18:48;;;;;;;;;;;;;;;-144.47;100.00;61586.06;5003138;28;20301;-78
2022/12/25 11:21:13;;;;;;;;;;;;;;;-144.47;100.00;61586.06;5000115;28;19929;-78
2022/12/25 11:23:42;;;;;;;;;;;;;;;-144.47;100.00;61586.06;5017664;28;20001;-77
2022/12/25 11:26:10;;;;;;;;;;;;;;;-144.47;100.00;61586.06;5016032;28;19917;-77
2022/12/25 11:28:37;;;;;;;;;;;;;;;-144.47;100.00;61586.06;5000501;28;20029;-78
2022/12/25 11:31:07;;;;;;;;;;;;;;;-144.47;100.00;61586.06;5001410;28;20005;-78
2022/12/25 11:33:39;;;;;;;;;;;;;;;-144.47;100.00;61586.06;4999660;28;19917;-79
2022/12/25 11:36:20;;;;;;;;;;;;;;;-144.47;100.00;61586.06;5001684;28;19921;-78
2022/12/25 11:38:45;;;;;;;;;;;;;;;-144.47;100.00;61586.06;5000585;28;20043;-78
2022/12/25 11:41:12;;;;;;;;;;;;;;;-144.47;100.00;61586.06;5001152;28;19979;-77
2022/12/25 11:44:04;;;;;;;;;;;;;;;-144.47;100.00;61586.06;5000342;28;19924;-78
2022/12/25 11:46:38;;;;;;;;;;;;;;;-144.47;100.00;61586.06;4997648;28;19917;-77
2022/12/25 11:49:05;;;;;;;;;;;;;;;-144.47;100.00;61586.06;5000513;28;20577;-77
2022/12/25 11:51:35;;;;;;;;;;;;;;;-144.47;100.00;61586.06;5000895;28;19925;-78
2022/12/25 11:54:07;;;;;;;;;;;;;;;-144.47;100.00;61586.06;5000422;28;20004;-76
2022/12/25 11:56:36;;;;;;;;;;;;;;;-144.47;100.00;61586.06;4999830;28;19928;-78
2022/12/25 11:59:07;;;;;;;;;;;;;;;-144.47;100.00;61586.06;4996653;28;20669;-77
2022/12/25 12:01:44;;;;;;;;;;;;;;;-144.47;100.00;61586.06;4997117;28;19988;-78
2022/12/25 12:04:33;;;;;;;;;;;;;;;-144.47;100.00;61586.06;4999577;28;19926;-77
2022/12/25 12:07:17;;;;;;;;;;;;;;;-144.47;100.00;61586.06;4995507;28;20274;-78
2022/12/25 12:09:46;;;;;;;;;;;;;;;-144.47;100.00;61586.06;5000068;28;19918;-78
2022/12/25 12:12:28;;;;;;;;;;;;;;;-144.47;100.00;61586.06;5003216;28;20020;-76
2022/12/25 12:15:12;;;;;;;;;;;;;;;-144.47;100.00;61586.06;4997376;28;19913;-78
2022/12/25 12:17:37;;;;;;;;;;;;;;;-144.47;100.00;61586.06;5015688;28;19925;-78
2022/12/25 12:20:25;;;;;;;;;;;;;;;-144.47;100.00;61586.06;5001191;28;19921;-78
2022/12/25 12:22:50;;;;;;;;;;;;;;;-144.47;100.00;61586.06;4996211;28;19963;-78
2022/12/25 12:25:17;;;;;;;;;;;;;;;-144.47;100.00;61586.06;5002737;28;20012;-77
2022/12/25 12:27:42;;;;;;;;;;;;;;;-144.47;100.00;61586.06;4999122;28;19917;-77
2022/12/25 12:30:22;;;;;;;;;;;;;;;-144.47;100.00;61586.06;5001998;28;20302;-78
2022/12/25 12:32:50;;;;;;;;;;;;;;;-144.47;100.00;61586.06;4996070;28;19925;-78
2022/12/25 12:35:21;;;;;;;;;;;;;;;-144.47;100.00;61586.06;4995416;28;19913;-78
2022/12/25 12:37:55;;;;;;;;;;;;;;;-144.47;100.00;61586.06;4995357;28;19924;-78
2022/12/25 12:40:24;;;;;;;;;;;;;;;-144.47;100.00;61586.06;4996560;28;20451;-77
2022/12/25 12:42:51;;;;;;;;;;;;;;;-144.47;100.00;61586.06;5002851;28;20044;-78
2022/12/25 12:45:22;;;;;;;;;;;;;;;-144.47;100.00;61586.06;4999632;28;20012;-78
2022/12/25 12:47:48;;;;;;;;;;;;;;;-144.47;100.00;61586.06;4995364;28;19918;-77
2022/12/25 12:50:28;;;;;;;;;;;;;;;-144.47;100.00;61586.06;4999642;28;19917;-78
2022/12/25 12:52:54;;;;;;;;;;;;;;;-144.47;100.00;61586.06;5000621;28;19924;-77
2022/12/25 12:55:29;;;;;;;;;;;;;;;-144.47;100.00;61586.06;5007001;28;19921;-77
2022/12/25 12:57:59;;;;;;;;;;;;;;;-144.47;100.00;61586.06;5004817;28;19925;-77
2022/12/25 13:00:26;;;;;;;;;;;;;;;-144.47;100.00;61586.06;5007232;28;20440;-77
2022/12/25 13:02:51;;;;;;;;;;;;;;;-144.47;100.00;61586.06;5010859;28;20318;-77
2022/12/25 13:05:35;;;;;;;;;;;;;;;-144.47;100.00;61586.06;5007888;28;19961;-77
2022/12/25 13:08:00;;;;;;;;;;;;;;;-144.47;100.00;61586.06;5004734;28;19924;-77
2022/12/25 13:10:35;;;;;;;;;;;;;;;-144.47;100.00;61586.06;5003731;28;19917;-77
2022/12/25 13:13:14;;;;;;;;;;;;;;;-144.47;100.00;61586.06;5001368;28;20607;-77
2022/12/25 13:15:39;;;;;;;;;;;;;;;-144.47;100.00;61586.06;5002890;28;19926;-77
2022/12/25 13:18:06;;;;;;;;;;;;;;;-144.47;100.00;61586.06;5004416;28;19972;-77
2022/12/25 13:20:35;;;;;;;;;;;;;;;-144.47;100.00;61586.06;5004529;28;19925;-77
2022/12/25 13:23:11;;;;;;;;;;;;;;;-144.47;100.00;61586.06;5003441;28;19952;-77
2022/12/25 13:25:36;;;;;;;;;;;;;;;-144.47;100.00;61586.06;5003344;28;19937;-78
2022/12/25 13:28:03;;;;;;;;;;;;;;;-144.47;100.00;61586.06;5003136;28;19997;-78
2022/12/25 13:30:29;;;;;;;;;;;;;;;-144.47;100.00;61586.06;5004039;28;19924;-77
2022/12/25 13:32:55;;;;;;;;;;;;;;;-144.47;100.00;61586.06;5002394;28;19914;-77
2022/12/25 13:35:22;;;;;;;;;;;;;;;-144.47;100.00;61586.06;5005389;28;19917;-77
2022/12/25 13:37:47;;;;;;;;;;;;;;;-144.47;100.00;61586.06;5016539;28;19917;-77
2022/12/25 13:40:31;;;;;;;;;;;;;;;-144.47;100.00;61586.06;5005319;28;19920;-77
2022/12/25 13:43:00;;;;;;;;;;;;;;;-144.47;100.00;61586.06;4998933;28;19961;-77
2022/12/25 13:45:28;;;;;;;;;;;;;;;-144.47;100.00;61586.06;5002556;28;19918;-77
2022/12/25 13:47:53;;;;;;;;;;;;;;;-144.47;100.00;61586.06;5002865;28;19922;-78
2022/12/25 13:50:20;;;;;;;;;;;;;;;-144.47;100.00;61586.06;5016902;28;19944;-76
2022/12/25 13:52:46;;;;;;;;;;;;;;;-144.47;100.00;61586.06;4997377;28;19925;-77
2022/12/25 13:55:13;;;;;;;;;;;;;;;-144.47;100.00;61586.06;5004556;28;19917;-78
2022/12/25 13:57:39;;;;;;;;;;;;;;;-144.47;100.00;61586.06;5002600;28;20321;-77
2022/12/25 14:00:07;;;;;;;;;;;;;;;-144.47;100.00;61586.06;5003168;28;20294;-78
2022/12/25 14:02:36;;;;;;;;;;;;;;;-144.47;100.00;61586.06;5002113;28;20016;-77
2022/12/25 14:05:02;;;;;;;;;;;;;;;-144.47;100.00;61586.06;5002648;28;20398;-78
2022/12/25 14:07:28;;;;;;;;;;;;;;;-144.47;100.00;61586.06;5003337;28;19924;-78
2022/12/25 14:09:56;;;;;;;;;;;;;;;-144.47;100.00;61586.06;5001675;28;20366;-78
2022/12/25 14:12:22;;;;;;;;;;;;;;;-144.47;100.00;61586.06;5019619;28;20012;-78
2022/12/25 14:14:48;;;;;;;;;;;;;;;-144.47;100.00;61586.06;5001752;28;20306;-76
2022/12/25 14:17:14;;;;;;;;;;;;;;;-144.47;100.00;61586.06;5019594;28;19917;-77
2022/12/25 14:19:39;;;;;;;;;;;;;;;-144.47;100.00;61586.06;5001970;28;20008;-77